createdAt,value
2019-01-03T00:00:52.333Z,-0.01
2019-01-03T00:01:52.277Z,-0.01
2019-01-03T00:02:52.428Z,-0.02
2019-01-03T00:03:52.326Z,-0.02
2019-01-03T00:04:52.542Z,-0.07
2019-01-03T00:05:52.421Z,-0.07
2019-01-03T00:06:52.354Z,-0.09
2019-01-03T00:07:52.438Z,-0.11
2019-01-03T00:08:53.523Z,-0.14
2019-01-03T00:09:52.632Z,-0.14
2019-01-03T00:10:52.393Z,-0.17
2019-01-03T00:11:52.824Z,-0.19
2019-01-03T00:12:52.464Z,-0.19
2019-01-03T00:13:52.783Z,-0.23
2019-01-03T00:14:52.347Z,-0.28
2019-01-03T00:15:52.506Z,-0.4
2019-01-03T00:16:52.448Z,-0.4
2019-01-03T00:17:52.413Z,-0.42
2019-01-03T00:18:52.555Z,-0.43
2019-01-03T00:19:52.275Z,-0.49
2019-01-03T00:20:52.352Z,-0.5
2019-01-03T00:21:52.408Z,-0.47
2019-01-03T00:22:52.552Z,-0.47
2019-01-03T00:23:52.442Z,-0.51
2019-01-03T00:24:52.334Z,-0.49
2019-01-03T00:25:53.083Z,-0.51
2019-01-03T00:26:54.104Z,-0.53
2019-01-03T00:27:52.250Z,-0.56
2019-01-03T00:28:52.262Z,-0.54
2019-01-03T00:29:52.276Z,-0.57
2019-01-03T00:30:52.421Z,-0.57
2019-01-03T00:31:52.377Z,-0.58
2019-01-03T00:32:52.301Z,-0.56
2019-01-03T00:33:52.360Z,-0.58
2019-01-03T00:34:52.333Z,-0.57
2019-01-03T00:35:52.455Z,-0.6
2019-01-03T00:36:52.241Z,-0.61
2019-01-03T00:37:52.348Z,-0.6
2019-01-03T00:38:52.400Z,-0.57
2019-01-03T00:39:52.215Z,-0.6
2019-01-03T00:40:52.600Z,-0.6
2019-01-03T00:41:52.309Z,-0.63
2019-01-03T00:42:52.274Z,-0.61
2019-01-03T00:43:52.271Z,-0.6
2019-01-03T00:44:52.318Z,-0.61
2019-01-03T00:45:52.476Z,-0.58
2019-01-03T00:46:52.418Z,-0.58
2019-01-03T00:47:52.388Z,-0.57
2019-01-03T00:48:52.345Z,-0.56
2019-01-03T00:49:52.213Z,-0.56
2019-01-03T00:50:52.414Z,-0.56
2019-01-03T00:51:52.417Z,-0.54
2019-01-03T00:52:52.402Z,-0.56
2019-01-03T00:53:52.460Z,-0.57
2019-01-03T00:54:52.387Z,-0.6
2019-01-03T00:55:52.218Z,-0.6
2019-01-03T00:56:52.306Z,-0.61
2019-01-03T00:57:52.396Z,-0.61
2019-01-03T00:58:52.190Z,-0.6
2019-01-03T00:59:52.535Z,-0.61
2019-01-03T01:00:52.290Z,-0.64
2019-01-03T01:01:52.560Z,-0.64
2019-01-03T01:02:52.341Z,-0.63
2019-01-03T01:03:52.659Z,-0.64
2019-01-03T01:04:52.390Z,-0.65
2019-01-03T01:05:52.205Z,-0.65
2019-01-03T01:06:52.272Z,-0.68
2019-01-03T01:07:52.328Z,-0.7
2019-01-03T01:08:52.459Z,-0.7
2019-01-03T01:09:52.232Z,-0.71
2019-01-03T01:10:52.506Z,-0.73
2019-01-03T01:11:52.594Z,-0.74
2019-01-03T01:12:52.455Z,-0.75
2019-01-03T01:13:52.167Z,-0.74
2019-01-03T01:14:52.227Z,-0.77
2019-01-03T01:15:52.434Z,-0.78
2019-01-03T01:16:52.320Z,-0.77
2019-01-03T01:17:52.215Z,-0.77
2019-01-03T01:18:52.207Z,-0.78
2019-01-03T01:19:52.266Z,-0.8
2019-01-03T01:20:52.170Z,-0.77
2019-01-03T01:21:52.343Z,-0.78
2019-01-03T01:22:52.180Z,-0.8
2019-01-03T01:23:52.470Z,-0.8
2019-01-03T01:24:52.214Z,-0.78
2019-01-03T01:25:52.418Z,-0.78
2019-01-03T01:26:52.178Z,-0.81
2019-01-03T01:27:52.218Z,-0.81
2019-01-03T01:28:52.241Z,-0.81
2019-01-03T01:29:52.196Z,-0.8
2019-01-03T01:30:52.261Z,-0.81
2019-01-03T01:31:52.242Z,-0.8
2019-01-03T01:32:52.257Z,-0.81
2019-01-03T01:33:52.155Z,-0.82
2019-01-03T01:34:52.187Z,-0.81
2019-01-03T01:35:52.134Z,-0.8
2019-01-03T01:36:52.126Z,-0.82
2019-01-03T01:37:52.173Z,-0.8
2019-01-03T01:38:52.176Z,-0.8
2019-01-03T01:39:52.606Z,-0.77
2019-01-03T01:40:52.138Z,-0.82
2019-01-03T01:41:52.235Z,-0.85
2019-01-03T01:42:52.141Z,-0.91
2019-01-03T01:43:52.405Z,-0.89
2019-01-03T01:44:52.158Z,-0.88
2019-01-03T01:45:52.160Z,-0.89
2019-01-03T01:46:52.408Z,-0.88
2019-01-03T01:47:52.598Z,-0.89
2019-01-03T01:48:52.570Z,-0.91
2019-01-03T01:49:52.236Z,-0.92
2019-01-03T01:50:52.246Z,-0.92
2019-01-03T01:51:52.214Z,-0.92
2019-01-03T01:52:52.961Z,-0.96
2019-01-03T01:53:53.239Z,-0.96
2019-01-03T01:54:52.150Z,-0.99
2019-01-03T01:55:52.962Z,-1.01
2019-01-03T01:56:52.168Z,-1.05
2019-01-03T01:57:52.293Z,-1.05
2019-01-03T01:58:52.322Z,-1.03
2019-01-03T01:59:52.406Z,-1.07
2019-01-03T02:00:52.268Z,-1.11
2019-01-03T02:01:52.590Z,-1.12
2019-01-03T02:02:52.186Z,-1.13
2019-01-03T02:03:52.232Z,-1.16
2019-01-03T02:04:52.150Z,-1.15
2019-01-03T02:05:52.185Z,-1.16
2019-01-03T02:06:52.494Z,-1.15
2019-01-03T02:07:52.316Z,-1.13
2019-01-03T02:08:51.913Z,-1.11
2019-01-03T02:09:52.907Z,-1.13
2019-01-03T02:10:52.201Z,-1.13
2019-01-03T02:11:52.348Z,-1.13
2019-01-03T02:12:52.517Z,-1.13
2019-01-03T02:13:52.422Z,-1.11
2019-01-03T02:14:52.111Z,-1.09
2019-01-03T02:15:52.071Z,-1.11
2019-01-03T02:16:52.319Z,-1.09
2019-01-03T02:17:52.304Z,-1.11
2019-01-03T02:18:52.263Z,-1.09
2019-01-03T02:19:52.261Z,-1.08
2019-01-03T02:20:52.294Z,-1.09
2019-01-03T02:21:52.450Z,-1.09
2019-01-03T02:22:52.205Z,-1.07
2019-01-03T02:23:52.966Z,-1.08
2019-01-03T02:24:52.681Z,-1.11
2019-01-03T02:25:52.242Z,-1.18
2019-01-03T02:26:52.355Z,-1.19
2019-01-03T02:27:52.410Z,-1.22
2019-01-03T02:28:52.263Z,-1.25
2019-01-03T02:29:52.220Z,-1.25
2019-01-03T02:30:53.003Z,-1.26
2019-01-03T02:31:52.322Z,-1.25
2019-01-03T02:32:52.091Z,-1.22
2019-01-03T02:33:52.486Z,-1.22
2019-01-03T02:34:52.320Z,-1.25
2019-01-03T02:35:52.043Z,-1.23
2019-01-03T02:36:52.762Z,-1.23
2019-01-03T02:37:52.064Z,-1.22
2019-01-03T02:38:52.906Z,-1.22
2019-01-03T02:39:52.491Z,-1.19
2019-01-03T02:40:52.232Z,-1.2
2019-01-03T02:41:52.270Z,-1.23
2019-01-03T02:42:52.684Z,-1.25
2019-01-03T02:43:52.186Z,-1.25
2019-01-03T02:44:52.122Z,-1.23
2019-01-03T02:45:52.315Z,-1.23
2019-01-03T02:46:52.459Z,-1.23
2019-01-03T02:47:52.457Z,-1.22
2019-01-03T02:48:52.218Z,-1.23
2019-01-03T02:49:52.206Z,-1.23
2019-01-03T02:50:52.246Z,-1.23
2019-01-03T02:51:52.182Z,-1.23
2019-01-03T02:52:52.471Z,-1.23
2019-01-03T02:53:52.573Z,-1.23
2019-01-03T02:54:52.329Z,-1.25
2019-01-03T02:55:52.076Z,-1.22
2019-01-03T02:56:52.156Z,-1.22
2019-01-03T02:57:52.080Z,-1.23
2019-01-03T02:58:52.530Z,-1.25
2019-01-03T02:59:52.071Z,-1.27
2019-01-03T03:00:52.370Z,-1.29
2019-01-03T03:01:52.221Z,-1.3
2019-01-03T03:02:52.415Z,-1.35
2019-01-03T03:03:52.167Z,-1.33
2019-01-03T03:04:52.639Z,-1.36
2019-01-03T03:05:52.310Z,-1.4
2019-01-03T03:06:52.683Z,-1.41
2019-01-03T03:07:52.375Z,-1.41
2019-01-03T03:08:52.204Z,-1.46
2019-01-03T03:09:52.362Z,-1.57
2019-01-03T03:10:52.525Z,-1.64
2019-01-03T03:11:52.089Z,-1.67
2019-01-03T03:12:52.072Z,-1.64
2019-01-03T03:13:52.132Z,-1.64
2019-01-03T03:14:52.033Z,-1.61
2019-01-03T03:15:52.060Z,-1.63
2019-01-03T03:16:52.384Z,-1.61
2019-01-03T03:17:52.252Z,-1.61
2019-01-03T03:18:52.038Z,-1.54
2019-01-03T03:19:52.020Z,-1.54
2019-01-03T03:20:52.231Z,-1.53
2019-01-03T03:21:52.236Z,-1.54
2019-01-03T03:22:52.016Z,-1.51
2019-01-03T03:23:52.759Z,-1.54
2019-01-03T03:24:53.742Z,-1.53
2019-01-03T03:25:52.067Z,-1.54
2019-01-03T03:26:52.276Z,-1.55
2019-01-03T03:27:52.159Z,-1.55
2019-01-03T03:28:52.363Z,-1.58
2019-01-03T03:29:51.967Z,-1.54
2019-01-03T03:30:52.225Z,-1.57
2019-01-03T03:31:52.001Z,-1.57
2019-01-03T03:32:52.315Z,-1.53
2019-01-03T03:33:52.493Z,-1.55
2019-01-03T03:34:52.217Z,-1.57
2019-01-03T03:35:52.317Z,-1.6
2019-01-03T03:36:52.110Z,-1.61
2019-01-03T03:37:52.034Z,-1.63
2019-01-03T03:38:52.342Z,-1.67
2019-01-03T03:39:52.287Z,-1.67
2019-01-03T03:40:51.774Z,-1.7
2019-01-03T03:41:51.967Z,-1.7
2019-01-03T03:42:52.121Z,-1.72
2019-01-03T03:43:52.336Z,-1.76
2019-01-03T03:44:51.977Z,-1.79
2019-01-03T03:45:52.737Z,-1.79
2019-01-03T03:46:52.456Z,-1.78
2019-01-03T03:47:52.806Z,-1.78
2019-01-03T03:48:52.006Z,-1.78
2019-01-03T03:49:52.107Z,-1.76
2019-01-03T03:50:52.220Z,-1.74
2019-01-03T03:51:52.179Z,-1.74
2019-01-03T03:52:52.231Z,-1.72
2019-01-03T03:53:52.119Z,-1.74
2019-01-03T03:54:52.312Z,-1.78
2019-01-03T03:55:51.971Z,-1.81
2019-01-03T03:56:52.086Z,-1.85
2019-01-03T03:57:52.394Z,-1.85
2019-01-03T03:58:52.061Z,-1.86
2019-01-03T03:59:52.211Z,-1.85
2019-01-03T04:00:52.318Z,-1.85
2019-01-03T04:01:52.132Z,-1.83
2019-01-03T04:02:52.000Z,-1.79
2019-01-03T04:03:52.105Z,-1.82
2019-01-03T04:04:52.138Z,-1.79
2019-01-03T04:05:52.256Z,-1.78
2019-01-03T04:06:52.299Z,-1.78
2019-01-03T04:07:52.197Z,-1.76
2019-01-03T04:08:52.163Z,-1.78
2019-01-03T04:09:52.065Z,-1.78
2019-01-03T04:10:52.447Z,-1.82
2019-01-03T04:11:52.195Z,-1.79
2019-01-03T04:12:52.256Z,-1.82
2019-01-03T04:13:52.277Z,-1.82
2019-01-03T04:14:52.798Z,-1.78
2019-01-03T04:15:52.119Z,-1.76
2019-01-03T04:16:52.159Z,-1.74
2019-01-03T04:17:52.257Z,-1.74
2019-01-03T04:18:52.092Z,-1.7
2019-01-03T04:19:52.046Z,-1.74
2019-01-03T04:20:52.106Z,-1.75
2019-01-03T04:21:51.994Z,-1.74
2019-01-03T04:22:52.179Z,-1.74
2019-01-03T04:23:51.977Z,-1.74
2019-01-03T04:24:52.666Z,-1.71
2019-01-03T04:25:52.027Z,-1.71
2019-01-03T04:26:52.147Z,-1.68
2019-01-03T04:27:52.735Z,-1.72
2019-01-03T04:28:52.141Z,-1.76
2019-01-03T04:29:52.037Z,-1.79
2019-01-03T04:30:52.146Z,-1.76
2019-01-03T04:31:52.020Z,-1.74
2019-01-03T04:32:52.121Z,-1.74
2019-01-03T04:33:52.217Z,-1.72
2019-01-03T04:34:52.256Z,-1.75
2019-01-03T04:35:52.308Z,-1.74
2019-01-03T04:36:51.995Z,-1.74
2019-01-03T04:37:52.150Z,-1.76
2019-01-03T04:38:52.718Z,-1.75
2019-01-03T04:39:52.044Z,-1.76
2019-01-03T04:40:52.305Z,-1.76
2019-01-03T04:41:51.996Z,-1.76
2019-01-03T04:42:52.551Z,-1.76
2019-01-03T04:43:52.157Z,-1.78
2019-01-03T04:44:52.257Z,-1.76
2019-01-03T04:45:52.060Z,-1.78
2019-01-03T04:46:51.890Z,-1.81
2019-01-03T04:47:52.060Z,-1.78
2019-01-03T04:48:52.000Z,-1.79
2019-01-03T04:49:52.025Z,-1.79
2019-01-03T04:50:52.070Z,-1.82
2019-01-03T04:51:51.972Z,-1.83
2019-01-03T04:52:51.956Z,-1.86
2019-01-03T04:53:51.968Z,-1.89
2019-01-03T04:54:51.998Z,-1.88
2019-01-03T04:55:51.950Z,-1.91
2019-01-03T04:56:52.105Z,-1.91
2019-01-03T04:57:52.130Z,-1.91
2019-01-03T04:58:52.096Z,-1.89
2019-01-03T04:59:52.108Z,-1.96
2019-01-03T05:00:52.079Z,-1.95
2019-01-03T05:01:51.995Z,-1.98
2019-01-03T05:02:51.965Z,-1.95
2019-01-03T05:03:51.981Z,-1.98
2019-01-03T05:04:51.942Z,-1.98
2019-01-03T05:05:51.953Z,-1.99
2019-01-03T05:06:51.881Z,-1.99
2019-01-03T05:07:52.018Z,-2
2019-01-03T05:08:52.050Z,-2
2019-01-03T05:09:52.018Z,-2
2019-01-03T05:10:52.157Z,-2.05
2019-01-03T05:11:51.994Z,-2.05
2019-01-03T05:12:51.867Z,-2.05
2019-01-03T05:13:51.815Z,-2.07
2019-01-03T05:14:52.048Z,-2.09
2019-01-03T05:15:52.141Z,-2.07
2019-01-03T05:16:52.318Z,-2.09
2019-01-03T05:17:51.987Z,-2.02
2019-01-03T05:18:51.838Z,-2.02
2019-01-03T05:19:52.134Z,-2.05
2019-01-03T05:20:51.858Z,-2.05
2019-01-03T05:21:52.041Z,-2.05
2019-01-03T05:22:52.171Z,-2.05
2019-01-03T05:23:57.874Z,-2.05
2019-01-03T05:24:52.256Z,-2
2019-01-03T05:25:51.962Z,-1.98
2019-01-03T05:26:51.818Z,-1.95
2019-01-03T05:27:52.285Z,-1.96
2019-01-03T05:28:52.591Z,-1.95
2019-01-03T05:29:52.119Z,-1.92
2019-01-03T05:30:51.972Z,-1.93
2019-01-03T05:31:52.119Z,-1.95
2019-01-03T05:32:52.162Z,-1.92
2019-01-03T05:33:51.814Z,-1.95
2019-01-03T05:34:51.811Z,-1.98
2019-01-03T05:35:52.183Z,-1.99
2019-01-03T05:36:52.034Z,-1.99
2019-01-03T05:37:52.074Z,-1.99
2019-01-03T05:38:52.040Z,-2.03
2019-01-03T05:39:51.802Z,-2
2019-01-03T05:40:51.788Z,-2.05
2019-01-03T05:41:52.131Z,-2.02
2019-01-03T05:42:52.293Z,-2.06
2019-01-03T05:43:51.838Z,-2.03
2019-01-03T05:44:52.084Z,-2.02
2019-01-03T05:45:52.025Z,-2
2019-01-03T05:46:52.278Z,-1.99
2019-01-03T05:47:51.967Z,-1.99
2019-01-03T05:48:52.018Z,-1.99
2019-01-03T05:49:51.982Z,-1.98
2019-01-03T05:50:51.627Z,-1.99
2019-01-03T05:51:52.546Z,-2
2019-01-03T05:52:51.789Z,-2
2019-01-03T05:53:51.958Z,-1.98
2019-01-03T05:54:52.054Z,-2
2019-01-03T05:55:52.025Z,-1.98
2019-01-03T05:56:51.793Z,-1.95
2019-01-03T05:57:52.031Z,-1.93
2019-01-03T05:58:52.678Z,-1.91
2019-01-03T05:59:51.981Z,-1.93
2019-01-03T06:00:51.801Z,-1.88
2019-01-03T06:01:52.620Z,-1.88
2019-01-03T06:02:51.829Z,-1.88
2019-01-03T06:03:52.147Z,-1.85
2019-01-03T06:04:52.123Z,-1.85
2019-01-03T06:05:51.755Z,-1.82
2019-01-03T06:06:52.328Z,-1.79
2019-01-03T06:07:52.130Z,-1.79
2019-01-03T06:08:51.946Z,-1.78
2019-01-03T06:09:51.767Z,-1.76
2019-01-03T06:10:51.859Z,-1.76
2019-01-03T06:11:51.955Z,-1.72
2019-01-03T06:12:52.329Z,-1.74
2019-01-03T06:13:52.015Z,-1.7
2019-01-03T06:14:52.418Z,-1.67
2019-01-03T06:15:52.443Z,-1.67
2019-01-03T06:16:52.122Z,-1.67
2019-01-03T06:17:51.840Z,-1.64
2019-01-03T06:18:51.827Z,-1.65
2019-01-03T06:19:51.989Z,-1.64
2019-01-03T06:20:51.989Z,-1.63
2019-01-03T06:21:51.987Z,-1.63
2019-01-03T06:22:52.311Z,-1.63
2019-01-03T06:23:52.037Z,-1.58
2019-01-03T06:24:52.004Z,-1.58
2019-01-03T06:25:51.741Z,-1.57
2019-01-03T06:26:51.885Z,-1.6
2019-01-03T06:27:51.979Z,-1.57
2019-01-03T06:28:52.055Z,-1.55
2019-01-03T06:29:51.720Z,-1.57
2019-01-03T06:30:52.233Z,-1.54
2019-01-03T06:31:51.853Z,-1.55
2019-01-03T06:32:52.255Z,-1.51
2019-01-03T06:33:51.850Z,-1.48
2019-01-03T06:34:51.784Z,-1.5
2019-01-03T06:35:51.994Z,-1.5
2019-01-03T06:36:51.835Z,-1.47
2019-01-03T06:37:51.699Z,-1.47
2019-01-03T06:38:51.700Z,-1.46
2019-01-03T06:39:51.688Z,-1.46
2019-01-03T06:40:51.724Z,-1.44
2019-01-03T06:41:51.706Z,-1.43
2019-01-03T06:42:52.124Z,-1.41
2019-01-03T06:43:51.721Z,-1.4
2019-01-03T06:44:51.767Z,-1.4
2019-01-03T06:45:51.728Z,-1.37
2019-01-03T06:46:51.719Z,-1.37
2019-01-03T06:47:52.164Z,-1.37
2019-01-03T06:48:51.953Z,-1.39
2019-01-03T06:49:51.702Z,-1.35
2019-01-03T06:50:51.968Z,-1.39
2019-01-03T06:51:51.976Z,-1.39
2019-01-03T06:52:51.728Z,-1.36
2019-01-03T06:53:51.842Z,-1.33
2019-01-03T06:54:51.975Z,-1.33
2019-01-03T06:55:52.367Z,-1.29
2019-01-03T06:56:51.851Z,-1.27
2019-01-03T06:57:52.094Z,-1.27
2019-01-03T06:58:51.824Z,-1.26
2019-01-03T06:59:51.711Z,-1.25
2019-01-03T07:00:52.058Z,-1.26
2019-01-03T07:01:51.841Z,-1.25
2019-01-03T07:02:51.941Z,-1.23
2019-01-03T07:03:52.186Z,-1.25
2019-01-03T07:04:51.765Z,-1.22
2019-01-03T07:05:51.921Z,-1.22
2019-01-03T07:06:52.040Z,-1.22
2019-01-03T07:07:51.925Z,-1.19
2019-01-03T07:08:51.698Z,-1.19
2019-01-03T07:09:51.650Z,-1.2
2019-01-03T07:10:52.111Z,-1.19
2019-01-03T07:11:51.797Z,-1.16
2019-01-03T07:12:51.938Z,-1.16
2019-01-03T07:13:52.083Z,-1.16
2019-01-03T07:14:51.696Z,-1.15
2019-01-03T07:15:52.566Z,-1.18
2019-01-03T07:16:52.035Z,-1.18
2019-01-03T07:17:51.750Z,-1.16
2019-01-03T07:18:51.665Z,-1.15
2019-01-03T07:19:52.024Z,-1.15
2019-01-03T07:20:51.932Z,-1.11
2019-01-03T07:21:52.075Z,-1.08
2019-01-03T07:22:51.768Z,-1.09
2019-01-03T07:23:51.677Z,-1.08
2019-01-03T07:24:51.910Z,-1.05
2019-01-03T07:25:53.443Z,-1.07
2019-01-03T07:26:52.044Z,-1.07
2019-01-03T07:27:52.034Z,-1.02
2019-01-03T07:28:55.874Z,-1.03
2019-01-03T07:29:52.026Z,-1.03
2019-01-03T07:30:52.520Z,-1.05
2019-01-03T07:31:51.674Z,-1.02
2019-01-03T07:32:51.744Z,-1.03
2019-01-03T07:33:51.978Z,-1.03
2019-01-03T07:34:52.029Z,-1.02
2019-01-03T07:35:51.993Z,-1.05
2019-01-03T07:36:51.971Z,-1.03
2019-01-03T07:37:51.624Z,-1.03
2019-01-03T07:38:52.976Z,-1.05
2019-01-03T07:39:51.762Z,-1.05
2019-01-03T07:40:51.865Z,-1.05
2019-01-03T07:41:51.828Z,-1.03
2019-01-03T07:42:51.986Z,-1.05
2019-01-03T07:43:52.028Z,-1.03
2019-01-03T07:44:51.757Z,-1.05
2019-01-03T07:45:51.646Z,-1.05
2019-01-03T07:46:51.926Z,-1.03
2019-01-03T07:47:52.003Z,-1.07
2019-01-03T07:48:51.997Z,-1.07
2019-01-03T07:49:51.683Z,-1.07
2019-01-03T07:50:51.627Z,-1.07
2019-01-03T07:51:51.799Z,-1.05
2019-01-03T07:52:52.134Z,-1.07
2019-01-03T07:53:51.684Z,-1.07
2019-01-03T07:54:52.478Z,-1.07
2019-01-03T07:55:52.235Z,-1.08
2019-01-03T07:56:51.597Z,-1.07
2019-01-03T07:57:51.628Z,-1.05
2019-01-03T07:58:51.977Z,-1.03
2019-01-03T07:59:51.799Z,-1.03
2019-01-03T08:00:51.812Z,-1.03
2019-01-03T08:01:51.581Z,-1.02
2019-01-03T08:02:51.941Z,-1.01
2019-01-03T08:03:52.062Z,-1.03
2019-01-03T08:04:51.835Z,-1.02
2019-01-03T08:05:51.634Z,-1.01
2019-01-03T08:06:52.487Z,-1.01
2019-01-03T08:07:51.651Z,-1.01
2019-01-03T08:08:52.226Z,-1.01
2019-01-03T08:09:51.808Z,-1.01
2019-01-03T08:10:51.702Z,-1.01
2019-01-03T08:11:51.801Z,-0.99
2019-01-03T08:12:51.547Z,-0.99
2019-01-03T08:13:51.760Z,-1.01
2019-01-03T08:14:51.755Z,-0.99
2019-01-03T08:15:52.674Z,-0.99
2019-01-03T08:16:51.821Z,-0.99
2019-01-03T08:17:51.655Z,-0.98
2019-01-03T08:18:51.945Z,-0.96
2019-01-03T08:19:51.825Z,-0.98
2019-01-03T08:20:51.561Z,-0.96
2019-01-03T08:21:51.598Z,-0.91
2019-01-03T08:22:51.965Z,-0.98
2019-01-03T08:23:52.079Z,-0.95
2019-01-03T08:24:51.982Z,-0.98
2019-01-03T08:25:52.089Z,-0.96
2019-01-03T08:26:51.980Z,-0.93
2019-01-03T08:27:51.640Z,-0.95
2019-01-03T08:28:51.622Z,-0.95
2019-01-03T08:29:51.589Z,-0.96
2019-01-03T08:30:51.605Z,-0.93
2019-01-03T08:31:51.722Z,-0.92
2019-01-03T08:32:51.540Z,-0.91
2019-01-03T08:33:51.606Z,-0.91
2019-01-03T08:34:51.561Z,-0.89
2019-01-03T08:35:51.697Z,-0.89
2019-01-03T08:36:51.695Z,-0.88
2019-01-03T08:37:51.778Z,-0.86
2019-01-03T08:38:52.373Z,-0.86
2019-01-03T08:39:51.848Z,-0.88
2019-01-03T08:40:51.788Z,-0.86
2019-01-03T08:41:51.930Z,-0.85
2019-01-03T08:42:51.573Z,-0.81
2019-01-03T08:43:51.896Z,-0.82
2019-01-03T08:44:51.954Z,-0.81
2019-01-03T08:45:52.040Z,-0.8
2019-01-03T08:46:51.615Z,-0.82
2019-01-03T08:47:51.443Z,-0.81
2019-01-03T08:48:51.667Z,-0.82
2019-01-03T08:49:51.542Z,-0.8
2019-01-03T08:50:51.669Z,-0.8
2019-01-03T08:51:51.537Z,-0.74
2019-01-03T08:52:51.902Z,-0.73
2019-01-03T08:53:51.573Z,-0.71
2019-01-03T08:54:52.049Z,-0.7
2019-01-03T08:55:51.637Z,-0.68
2019-01-03T08:56:51.880Z,-0.65
2019-01-03T08:57:51.536Z,-0.63
2019-01-03T08:58:51.770Z,-0.63
2019-01-03T08:59:51.638Z,-0.57
2019-01-03T09:00:51.931Z,-0.57
2019-01-03T09:01:51.515Z,-0.54
2019-01-03T09:02:51.748Z,-0.51
2019-01-03T09:03:51.705Z,-0.5
2019-01-03T09:04:52.557Z,-0.49
2019-01-03T09:05:51.563Z,-0.47
2019-01-03T09:06:51.478Z,-0.49
2019-01-03T09:07:51.504Z,-0.45
2019-01-03T09:08:51.511Z,-0.45
2019-01-03T09:09:51.526Z,-0.45
2019-01-03T09:10:51.931Z,-0.43
2019-01-03T09:11:51.608Z,-0.43
2019-01-03T09:12:51.566Z,-0.46
2019-01-03T09:13:51.994Z,-0.42
2019-01-03T09:14:52.001Z,-0.4
2019-01-03T09:15:51.764Z,-0.4
2019-01-03T09:16:51.520Z,-0.42
2019-01-03T09:17:51.777Z,-0.4
2019-01-03T09:18:51.510Z,-0.4
2019-01-03T09:19:51.664Z,-0.39
2019-01-03T09:20:52.131Z,-0.35
2019-01-03T09:21:51.827Z,-0.36
2019-01-03T09:22:51.652Z,-0.39
2019-01-03T09:23:51.755Z,-0.37
2019-01-03T09:24:52.183Z,-0.39
2019-01-03T09:25:51.565Z,-0.36
2019-01-03T09:26:51.626Z,-0.35
2019-01-03T09:27:51.701Z,-0.33
2019-01-03T09:28:52.365Z,-0.33
2019-01-03T09:29:51.735Z,-0.32
2019-01-03T09:30:51.536Z,-0.35
2019-01-03T09:31:51.641Z,-0.33
2019-01-03T09:32:51.502Z,-0.33
2019-01-03T09:33:51.504Z,-0.33
2019-01-03T09:34:51.561Z,-0.32
2019-01-03T09:35:51.480Z,-0.33
2019-01-03T09:36:51.597Z,-0.3
2019-01-03T09:37:51.617Z,-0.29
2019-01-03T09:38:51.641Z,-0.26
2019-01-03T09:39:51.925Z,-0.22
2019-01-03T09:40:51.869Z,-0.22
2019-01-03T09:41:51.963Z,-0.18
2019-01-03T09:42:55.568Z,-0.17
2019-01-03T09:43:51.526Z,-0.11
2019-01-03T09:44:52.000Z,-0.12
2019-01-03T09:45:51.656Z,-0.11
2019-01-03T09:46:51.713Z,-0.11
2019-01-03T09:47:52.873Z,-0.09
2019-01-03T09:48:51.632Z,-0.07
2019-01-03T09:49:53.299Z,-0.07
2019-01-03T09:50:51.708Z,-0.07
2019-01-03T09:51:51.492Z,-0.04
2019-01-03T09:52:51.710Z,-0.04
2019-01-03T09:53:51.476Z,-0.05
2019-01-03T09:54:51.678Z,-0.01
2019-01-03T09:55:51.973Z,-0.01
2019-01-03T09:56:52.000Z,-0.01
2019-01-03T09:57:51.661Z,-0.01
2019-01-03T09:58:51.956Z,-0.01
2019-01-03T09:59:51.448Z,0.03
2019-01-03T10:00:52.002Z,0.02
2019-01-03T10:01:51.619Z,0.01
2019-01-03T10:02:51.446Z,0.02
2019-01-03T10:03:51.630Z,0.02
2019-01-03T10:04:51.543Z,0.06
2019-01-03T10:05:51.477Z,0.05
2019-01-03T10:06:51.499Z,0.06
2019-01-03T10:07:51.917Z,0.06
2019-01-03T10:08:52.681Z,0.09
2019-01-03T10:09:51.520Z,0.09
2019-01-03T10:10:51.406Z,0.09
2019-01-03T10:11:51.455Z,0.15
2019-01-03T10:12:51.459Z,0.13
2019-01-03T10:13:51.409Z,0.15
2019-01-03T10:14:51.477Z,0.18
2019-01-03T10:15:51.460Z,0.18
2019-01-03T10:16:51.666Z,0.16
2019-01-03T10:17:51.406Z,0.18
2019-01-03T10:18:51.992Z,0.23
2019-01-03T10:19:51.404Z,0.2
2019-01-03T10:20:51.518Z,0.2
2019-01-03T10:21:51.573Z,0.27
2019-01-03T10:22:51.429Z,0.27
2019-01-03T10:23:51.924Z,0.3
2019-01-03T10:24:51.578Z,0.34
2019-01-03T10:25:52.317Z,0.36
2019-01-03T10:26:51.862Z,0.38
2019-01-03T10:27:51.499Z,0.38
2019-01-03T10:28:51.502Z,0.41
2019-01-03T10:29:51.639Z,0.43
2019-01-03T10:30:51.504Z,0.43
2019-01-03T10:31:51.716Z,0.46
2019-01-03T10:32:51.397Z,0.46
2019-01-03T10:33:51.405Z,0.47
2019-01-03T10:34:52.559Z,0.46
2019-01-03T10:35:51.730Z,0.48
2019-01-03T10:36:51.450Z,0.48
2019-01-03T10:37:51.672Z,0.53
2019-01-03T10:38:51.669Z,0.54
2019-01-03T10:39:51.597Z,0.54
2019-01-03T10:40:51.576Z,0.57
2019-01-03T10:41:52.031Z,0.57
2019-01-03T10:42:51.379Z,0.6
2019-01-03T10:43:51.643Z,0.65
2019-01-03T10:44:51.679Z,0.64
2019-01-03T10:45:52.199Z,0.63
2019-01-03T10:46:51.538Z,0.64
2019-01-03T10:47:51.715Z,0.64
2019-01-03T10:48:51.416Z,0.6
2019-01-03T10:49:51.608Z,0.58
2019-01-03T10:50:51.340Z,0.57
2019-01-03T10:51:51.755Z,0.58
2019-01-03T10:52:52.189Z,0.58
2019-01-03T10:53:51.416Z,0.58
2019-01-03T10:54:51.711Z,0.57
2019-01-03T10:55:51.577Z,0.57
2019-01-03T10:56:51.554Z,0.57
2019-01-03T10:57:51.369Z,0.57
2019-01-03T10:58:52.016Z,0.6
2019-01-03T10:59:51.774Z,0.57
2019-01-03T11:00:51.859Z,0.65
2019-01-03T11:01:52.194Z,0.64
2019-01-03T11:02:51.922Z,0.63
2019-01-03T11:03:51.981Z,0.63
2019-01-03T11:04:51.396Z,0.65
2019-01-03T11:05:51.642Z,0.65
2019-01-03T11:06:51.539Z,0.69
2019-01-03T11:07:51.420Z,0.68
2019-01-03T11:08:51.574Z,0.74
2019-01-03T11:09:51.631Z,0.72
2019-01-03T11:10:51.917Z,0.71
2019-01-03T11:11:51.703Z,0.74
2019-01-03T11:12:51.593Z,0.72
2019-01-03T11:13:51.707Z,0.72
2019-01-03T11:14:51.910Z,0.74
2019-01-03T11:15:51.681Z,0.74
2019-01-03T11:16:51.632Z,0.74
2019-01-03T11:17:51.676Z,0.76
2019-01-03T11:18:51.464Z,0.75
2019-01-03T11:19:51.640Z,0.74
2019-01-03T11:20:51.478Z,0.75
2019-01-03T11:21:51.623Z,0.76
2019-01-03T11:22:51.628Z,0.74
2019-01-03T11:23:51.581Z,0.75
2019-01-03T11:24:51.336Z,0.75
2019-01-03T11:25:51.583Z,0.75
2019-01-03T11:26:51.294Z,0.75
2019-01-03T11:27:51.463Z,0.75
2019-01-03T11:28:51.676Z,0.78
2019-01-03T11:29:51.449Z,0.76
2019-01-03T11:30:51.581Z,0.78
2019-01-03T11:31:52.168Z,0.78
2019-01-03T11:32:51.510Z,0.79
2019-01-03T11:33:51.442Z,0.78
2019-01-03T11:34:51.556Z,0.78
2019-01-03T11:35:51.427Z,0.76
2019-01-03T11:36:51.754Z,0.78
2019-01-03T11:37:51.535Z,0.76
2019-01-03T11:38:51.616Z,0.76
2019-01-03T11:39:51.306Z,0.75
2019-01-03T11:40:51.988Z,0.78
2019-01-03T11:41:51.899Z,0.74
2019-01-03T11:42:51.429Z,0.72
2019-01-03T11:43:51.653Z,0.72
2019-01-03T11:44:51.601Z,0.71
2019-01-03T11:45:51.689Z,0.72
2019-01-03T11:46:51.389Z,0.71
2019-01-03T11:47:51.613Z,0.74
2019-01-03T11:48:51.444Z,0.74
2019-01-03T11:49:51.281Z,0.76
2019-01-03T11:50:51.474Z,0.79
2019-01-03T11:51:51.382Z,0.79
2019-01-03T11:52:51.405Z,0.82
2019-01-03T11:53:51.340Z,0.82
2019-01-03T11:54:51.299Z,0.85
2019-01-03T11:55:52.076Z,0.86
2019-01-03T11:56:51.331Z,0.89
2019-01-03T11:57:51.424Z,0.86
2019-01-03T11:58:51.483Z,0.91
2019-01-03T11:59:51.467Z,0.93
2019-01-03T12:00:51.763Z,0.93
2019-01-03T12:01:51.306Z,0.91
2019-01-03T12:02:51.289Z,0.89
2019-01-03T12:03:51.362Z,0.88
2019-01-03T12:04:51.486Z,0.89
2019-01-03T12:05:51.303Z,0.88
2019-01-03T12:06:51.280Z,0.86
2019-01-03T12:07:51.380Z,0.86
2019-01-03T12:08:51.414Z,0.86
2019-01-03T12:09:51.934Z,0.88
2019-01-03T12:10:51.531Z,0.92
2019-01-03T12:11:51.387Z,0.91
2019-01-03T12:12:52.060Z,0.91
2019-01-03T12:13:52.238Z,0.93
2019-01-03T12:14:51.701Z,0.95
2019-01-03T12:15:51.608Z,0.93
2019-01-03T12:16:51.512Z,0.93
2019-01-03T12:17:52.057Z,0.93
2019-01-03T12:18:52.614Z,0.95
2019-01-03T12:19:51.527Z,0.95
2019-01-03T12:20:51.521Z,0.96
2019-01-03T12:21:51.422Z,0.93
2019-01-03T12:22:51.355Z,0.92
2019-01-03T12:23:51.231Z,0.91
2019-01-03T12:24:53.365Z,0.89
2019-01-03T12:25:51.503Z,0.81
2019-01-03T12:26:51.944Z,0.85
2019-01-03T12:27:54.371Z,0.85
2019-01-03T12:28:53.069Z,0.85
2019-01-03T12:29:51.527Z,0.85
2019-01-03T12:30:51.826Z,0.86
2019-01-03T12:31:51.401Z,0.88
2019-01-03T12:32:51.336Z,0.88
2019-01-03T12:33:52.100Z,0.85
2019-01-03T12:34:51.256Z,0.86
2019-01-03T12:35:51.352Z,0.86
2019-01-03T12:36:51.241Z,0.89
2019-01-03T12:37:51.578Z,0.91
2019-01-03T12:38:51.723Z,0.88
2019-01-03T12:39:51.667Z,0.86
2019-01-03T12:40:51.348Z,0.88
2019-01-03T12:41:51.468Z,0.86
2019-01-03T12:42:51.257Z,0.89
2019-01-03T12:43:51.740Z,0.91
2019-01-03T12:44:51.517Z,0.91
2019-01-03T12:45:51.333Z,0.93
2019-01-03T12:46:51.339Z,0.92
2019-01-03T12:47:51.250Z,0.91
2019-01-03T12:48:51.502Z,0.92
2019-01-03T12:49:51.434Z,0.93
2019-01-03T12:50:51.222Z,0.91
2019-01-03T12:51:51.669Z,0.95
2019-01-03T12:52:52.088Z,0.93
2019-01-03T12:53:51.415Z,0.98
2019-01-03T12:54:51.372Z,0.98
2019-01-03T12:55:51.334Z,1
2019-01-03T12:56:51.562Z,1.02
2019-01-03T12:57:52.077Z,1
2019-01-03T12:58:51.578Z,0.99
2019-01-03T12:59:51.684Z,1.02
2019-01-03T13:00:51.281Z,0.98
2019-01-03T13:01:51.650Z,1